Tiempo atmosférico en la estación meteorológica de Barcelona, Museo Marítimo, Barcelona (37 m.)



Fecha
DESCASC
Temp. máxima en grados centígrados (hora)
DESCASC
Temp. mínima en grados centígrados (hora)
DESCASC
Temp. media en grados centígrados
DESCASC
Racha de viento máxima en m/sg (hora)
DESCASC
Velocidad máxima media en intervalos de 10 minutos(hora)
DESCASC
Precipitaciones diarias en mm
DESCASC
Precipitaciones de 00:00 a 06:00 en mm
DESCASC
Precipitaciones de 06:00 a 12:00 en mm
DESCASC
Precipitaciones de 12:00 a 18:00 en mm
DESCASC
Precipitaciones de 18:00 a 24:00 en mm
DESCASC
17-10-2019 -- (--) -- (--) -- 6.94 (17:30) 3.61 (17:30) -- -- 0.4 0 0
16-10-2019 -- (--) -- (--) -- 9.72 (14:10) 5.28 (15:10) -- -- -- -- --
15-10-2019 -- (--) -- (--) -- 10.28 (02:10) 3.89 (11:30) -- -- -- -- --
14-10-2019 -- (--) -- (--) -- 6.39 (13:20) 3.33 (14:20) -- -- -- -- --
13-10-2019 -- (--) -- (--) -- 6.67 (12:00) 2.78 (13:10) -- -- -- -- --
12-10-2019 -- (--) -- (--) -- 4.44 (22:30) 2.22 (15:40) -- -- -- -- --
11-10-2019 -- (--) -- (--) -- 7.78 (17:00) 3.89 (16:20) -- -- -- -- --
10-10-2019 -- (--) -- (--) -- 5.56 (18:50) 2.78 (18:50) -- -- -- -- --
09-10-2019 -- (--) -- (--) -- 9.72 (19:30) 3.61 (18:00) -- -- -- -- --
08-10-2019 -- (--) -- (--) -- 10.56 (15:50) 5.83 (16:10) -- -- -- -- --
07-10-2019 -- (--) -- (--) -- 6.67 (14:50) 3.89 (14:50) -- -- -- -- --
06-10-2019 -- (--) -- (--) -- 5.28 (21:10) 2.22 (20:50) -- -- -- -- --
05-10-2019 -- (--) -- (--) -- 5.28 (15:40) 2.22 (15:30) -- -- -- -- --
04-10-2019 -- (--) -- (--) -- 6.67 (18:10) 3.89 (19:20) -- -- -- -- --
03-10-2019 -- (--) -- (--) -- 6.94 (14:00) 3.89 (14:00) -- -- -- -- --
02-10-2019 -- (--) -- (--) -- 8.06 (00:50) 3.33 (00:30) -- -- -- -- --
01-10-2019 -- (--) -- (--) -- 8.33 (17:40) 4.17 (16:50) -- -- -- -- --
30-09-2019 -- (--) -- (--) -- 7.78 (16:40) 3.89 (16:20) -- -- -- -- --
29-09-2019 -- (--) -- (--) -- 11.67 (16:00) 6.67 (16:40) -- -- -- -- --
28-09-2019 -- (--) -- (--) -- 4.72 (12:40) 2.22 (12:50) -- -- -- -- --
27-09-2019 -- (--) -- (--) -- 6.67 (16:20) 3.61 (16:20) -- -- -- -- --
26-09-2019 -- (--) -- (--) -- 9.44 (18:50) 4.72 (16:50) -- -- -- -- --
25-09-2019 -- (--) -- (--) -- 4.72 (00:30) 2.22 (12:30) -- -- -- -- --
24-09-2019 -- (--) -- (--) -- 11.11 (18:40) 6.67 (19:00) -- -- -- -- --
23-09-2019 -- (--) -- (--) -- 8.61 (16:10) 5 (16:20) -- -- -- -- --
22-09-2019 -- (--) -- (--) -- 9.72 (21:00) 4.72 (15:40) -- -- -- -- --
21-09-2019 -- (--) -- (--) -- 8.33 (12:30) 3.33 (12:40) -- -- -- -- --
20-09-2019 -- (--) -- (--) -- 7.22 (19:20) 3.33 (16:50) -- -- -- -- --

Gráficas

Temp. máximas Temp. mínimas Temp. medias Precipitaciones Rachas de viento máximas Velocidades máximas media en intervalos de 10 minutos

Datos horarios

Fecha y hora oficial Temperatura (ºC) Velocidad del viento (km/h) Dirección del viento Racha (km/h) Dirección de racha Precipitación (mm) Presión (hPa) Tendencia (hPa) Humedad (%)
2019-10-19 23:00:00 21.9 4 Oeste 13 Oeste 0 -- -- 79
2019-10-19 22:00:00 22 7 Sudoeste 14 Sudoeste 0 -- -- 80
2019-10-19 21:00:00 21.8 6 Sudoeste 10 Oeste 0 -- -- 77
2019-10-19 20:00:00 21.9 4 Oeste 17 Oeste 0 -- -- 75
2019-10-19 19:00:00 22.2 9 Oeste 21 Oeste 0 -- -- 73
2019-10-19 18:00:00 22.7 13 Oeste 25 Sudoeste 0 -- -- 73
2019-10-19 17:00:00 23.6 13 Oeste 29 Oeste 0 -- -- 72
2019-10-19 16:00:00 23.8 14 Oeste 29 Sudoeste 0 -- -- 71
2019-10-19 15:00:00 23.8 15 Sudoeste 33 Sudoeste 0 -- -- 73
2019-10-19 14:00:00 24.2 14 Sudoeste 30 Sudoeste 0 -- -- 71
2019-10-19 13:00:00 22.6 4 Este 9 Sudeste 0 -- -- 81
2019-10-19 12:00:00 21.7 4 Este 9 Sudeste 0 -- -- 79
2019-10-19 11:00:00 21.2 5 Sudeste 9 Sudeste 0 -- -- 79
2019-10-19 10:00:00 20.2 0 Calma 5 Oeste 0 -- -- 83
2019-10-19 09:00:00 18.2 3 Oeste 6 Oeste 0 -- -- 87
2019-10-19 08:00:00 17.5 2 Sudoeste 5 Sudoeste 0.2 -- -- 89
2019-10-19 07:00:00 17.6 0 Calma 3 Este 0.4 -- -- 88
2019-10-19 06:00:00 18.1 0 Calma 4 Oeste 0 -- -- 81
2019-10-19 05:00:00 18.4 3 Oeste 5 Oeste 0 -- -- 80
2019-10-19 04:00:00 18.6 0 Calma 4 Noroeste 0 -- -- 78
2019-10-19 03:00:00 19.1 3 Oeste 5 Oeste 0 -- -- 75
2019-10-19 02:00:00 19.6 3 Oeste 5 Oeste 0 -- -- 72
2019-10-19 01:00:00 19.5 2 Oeste 6 Oeste 0 -- -- 72
2019-10-19 00:00:00 19.6 0 Calma 3 Sudeste 0 -- -- 75
2019-10-18 23:00:00 20.1 0 Calma 5 Oeste 0 -- -- 70
2019-10-18 22:00:00 20.8 0 Calma 14 Oeste 0 -- -- 67
2019-10-18 21:00:00 21.5 6 Oeste 21 Oeste 0 -- -- 66
2019-10-18 20:00:00 21.6 13 Oeste 23 Sudoeste 0 -- -- 73
2019-10-18 19:00:00 22.1 10 Oeste 20 Sudoeste 0 -- -- 74
2019-10-18 18:00:00 22.7 13 Oeste 22 Oeste 0 -- -- 72
2019-10-18 17:00:00 23.6 10 Oeste 18 Oeste 0 -- -- 64
2019-10-18 16:00:00 23.4 7 Oeste 16 Sur 0 -- -- 59
2019-10-18 15:00:00 23.6 8 Oeste 19 Sudoeste 0 -- -- 58
2019-10-18 14:00:00 23.6 8 Sudoeste 19 Sudoeste 0 -- -- 53
2019-10-18 13:00:00 22.6 6 Oeste 12 Oeste 0 -- -- 51
2019-10-18 12:00:00 21.8 4 Oeste 8 Oeste 0 -- -- 54
2019-10-18 11:00:00 21.2 4 Oeste 12 Sudoeste 0 -- -- 54
2019-10-18 10:00:00 19.7 5 Oeste 10 Sudoeste 0 -- -- 58
2019-10-18 09:00:00 18.3 4 Oeste 9 Oeste 0 -- -- 61
2019-10-18 08:00:00 17.2 3 Oeste 8 Oeste 0.2 -- -- 68
2019-10-18 07:00:00 17.2 2 Oeste 6 Oeste 0.4 -- -- 76
2019-10-18 06:00:00 18.2 3 Oeste 8 Oeste 0 -- -- 63
2019-10-18 05:00:00 18.7 6 Oeste 8 Oeste 0 -- -- 59
2019-10-18 04:00:00 18.5 4 Oeste 7 Oeste 0 -- -- 62
2019-10-18 03:00:00 18.8 5 Oeste 8 Noroeste 0 -- -- 59
2019-10-18 02:00:00 18.5 2 Oeste 6 Oeste 0 -- -- 60
2019-10-18 01:00:00 19.5 3 Oeste 11 Oeste 0 -- -- 55
2019-10-18 00:00:00 20.3 7 Oeste 16 Oeste 0 -- -- 51
2019-10-17 23:00:00 21.1 5 Oeste 14 Oeste 0 -- -- 48
2019-10-17 22:00:00 21.5 7 Oeste 15 Oeste 0 -- -- 59
2019-10-17 21:00:00 21.3 7 Oeste 16 Oeste 0 -- -- 71
2019-10-17 20:00:00 21.7 7 Oeste 23 Oeste 0 -- -- 69
2019-10-17 19:00:00 22 13 Oeste 23 Oeste 0 -- -- 69
2019-10-17 18:00:00 23 13 Oeste 25 Noroeste 0 -- -- 54
2019-10-17 17:00:00 23.9 12 Oeste 24 Sudoeste 0 -- -- 53
2019-10-17 16:00:00 23.7 10 Oeste 23 Sudoeste 0 -- -- 60
2019-10-17 15:00:00 23.7 4 Norte 13 Sudoeste 0 -- -- 68
2019-10-17 14:00:00 22.7 9 Sudoeste 17 Sudoeste 0 -- -- 69
2019-10-17 13:00:00 22 5 Sudeste 12 Este 0 -- -- 67
2019-10-17 12:00:00 20.8 3 Sudeste 8 Sudeste 0 -- -- 64
2019-10-17 11:00:00 19.6 4 Sudeste 8 Sudeste 0 -- -- 69
2019-10-17 10:00:00 18.6 4 Este 8 Sudeste 0 -- -- 66
2019-10-17 09:00:00 16.4 3 Oeste 6 Oeste 0 -- -- 74
2019-10-17 08:00:00 15 0 Calma 3 Oeste 0.2 -- -- 79
2019-10-17 07:00:00 16.1 2 Oeste 9 Sudoeste 0.2 -- -- 80
2019-10-17 06:00:00 16.8 3 Oeste 7 Oeste 0 -- -- 64
2019-10-17 05:00:00 16.7 5 Oeste 6 Oeste 0 -- -- 66
2019-10-17 04:00:00 16.6 3 Oeste 4 Oeste 0 -- -- 67
2019-10-17 03:00:00 17.2 2 Oeste 5 Oeste 0 -- -- 65
2019-10-17 02:00:00 17.3 3 Oeste 7 Oeste 0 -- -- 70
2019-10-17 01:00:00 17.5 2 Oeste 5 Oeste 0 -- -- 71
2019-10-17 00:00:00 18.6 2 Oeste 15 Noroeste 0 -- -- 66
2019-10-16 23:00:00 19.5 7 Oeste 13 Oeste 0 -- -- 62
2019-10-16 22:00:00 19.5 5 Sudoeste 12 Oeste 0 -- -- 62
2019-10-16 21:00:00 20 6 Oeste 16 Oeste 0 -- -- 60
2019-10-16 20:00:00 20.4 10 Oeste 21 Oeste 0 -- -- 60
2019-10-16 19:00:00 20.9 12 Oeste 31 Oeste 0 -- -- 54
2019-10-16 18:00:00 21.9 14 Oeste 28 Oeste 0 -- -- 49
2019-10-16 17:00:00 22.4 15 Oeste 32 Oeste 0 -- -- 47
2019-10-16 16:00:00 22.9 15 Oeste 33 Oeste 0 -- -- 45
2019-10-16 15:00:00 23 16 Oeste 35 Oeste 0 -- -- 44
2019-10-16 14:00:00 22.7 17 Oeste 31 Oeste 0 -- -- 46
2019-10-16 13:00:00 22.2 12 Oeste 26 Oeste 0 -- -- 47
2019-10-16 12:00:00 20.8 6 Sudoeste 13 Noroeste 0.2 -- -- 41
2019-10-16 11:00:00 19.2 8 Oeste 13 Oeste 0 -- -- 43
2019-10-16 10:00:00 17.9 6 Oeste 9 Oeste 0 -- -- 47
2019-10-16 09:00:00 16.4 5 Oeste 10 Oeste 0 -- -- 50
2019-10-16 08:00:00 15.2 5 Oeste 9 Oeste 0 -- -- 57
2019-10-16 07:00:00 14.9 3 Oeste 9 Oeste 0.4 -- -- 67
2019-10-16 06:00:00 15.7 5 Oeste 10 Oeste 0 -- -- 54
2019-10-16 05:00:00 15.4 5 Oeste 10 Noroeste 0 -- -- 57
2019-10-16 04:00:00 15.3 7 Oeste 16 Oeste 0 -- -- 59
2019-10-16 03:00:00 15.8 2 Sudeste 6 Nordeste 0 -- -- 61
2019-10-16 02:00:00 16.3 0 Calma 6 Norte 0 -- -- 60
2019-10-16 01:00:00 16.7 3 Oeste 7 Oeste 0 -- -- 58
2019-10-16 00:00:00 17.2 0 Calma 7 Oeste 0 -- -- 55
2019-10-15 23:00:00 18.1 3 Oeste 14 Nordeste 0 -- -- 51
2019-10-15 22:00:00 18.7 5 Nordeste 11 Oeste 0 -- -- 47
2019-10-15 21:00:00 19.2 4 Oeste 11 Sudoeste 0 -- -- 46
2019-10-15 20:00:00 20.1 8 Oeste 16 Oeste 0 -- -- 44
2019-10-15 19:00:00 20.9 4 Oeste 17 Oeste 0 -- -- 42
2019-10-15 18:00:00 22.4 5 Oeste 21 Oeste 0 -- -- 38
2019-10-15 17:00:00 22.5 11 Oeste 23 Oeste 0 -- -- 38
2019-10-15 16:00:00 22.3 6 Norte 24 Oeste 0 -- -- 39
2019-10-15 15:00:00 21.6 6 Sudeste 25 Nordeste 0 -- -- 41
2019-10-15 14:00:00 21.2 7 Oeste 18 Oeste 0 -- -- 44
2019-10-15 13:00:00 19.5 11 Oeste 20 Noroeste 0 -- -- 46
2019-10-15 12:00:00 18.5 11 Oeste 34 Oeste 0 -- -- 48
2019-10-15 11:00:00 17.8 5 Sudoeste 26 Oeste 0 -- -- 49
2019-10-15 10:00:00 16.8 11 Oeste 32 Sudoeste 0 -- -- 53
2019-10-15 09:00:00 15.8 8 Oeste 27 Oeste 0 -- -- 59
2019-10-15 08:00:00 15.2 10 Oeste 22 Oeste 0 -- -- 63
2019-10-15 07:00:00 15.2 12 Oeste 29 Sudoeste 0.2 -- -- 69
2019-10-15 06:00:00 16.1 7 Sudoeste 20 Sudoeste 0 -- -- 61
2019-10-15 05:00:00 16.4 6 Sudoeste 29 Sudoeste 0 -- -- 63
2019-10-15 04:00:00 16.7 9 Oeste 26 Oeste 0 -- -- 65
2019-10-15 03:00:00 16.9 9 Oeste 37 Oeste 11.4 -- -- 75
2019-10-15 02:00:00 20.4 2 Sudoeste 6 Sudoeste 0.8 -- -- 92
2019-10-15 01:00:00 20.6 3 Oeste 5 Oeste 0 -- -- 92
2019-10-15 00:00:00 20.9 4 Sudoeste 8 Sudoeste 0 -- -- 90
2019-10-14 23:00:00 21 4 Oeste 8 Oeste 0 -- -- 90
2019-10-14 22:00:00 20.8 2 Oeste 9 Sudeste 0 -- -- 93
2019-10-14 21:00:00 21.4 3 Este 18 Nordeste 0 -- -- 95
2019-10-14 20:00:00 21.7 5 Este 12 Este 0 -- -- 95
2019-10-14 19:00:00 21.8 4 Este 12 Sudeste 2 -- -- 94
2019-10-14 18:00:00 22.3 4 Sudeste 13 Sudeste 0 -- -- 90
2019-10-14 17:00:00 22.8 6 Sudeste 11 Sudeste 0 -- -- 86
2019-10-14 16:00:00 23.5 5 Este 17 Este 0 -- -- 80
2019-10-14 15:00:00 24 9 Este 22 Sudeste 0 -- -- 80
2019-10-14 14:00:00 24 8 Este 23 Nordeste 0 -- -- 76
2019-10-14 13:00:00 23.3 9 Este 19 Nordeste 0 -- -- 80
2019-10-14 12:00:00 23 8 Este 19 Sudeste 0 -- -- 82
2019-10-14 11:00:00 22.6 6 Este 19 Este 0 -- -- 83
2019-10-14 10:00:00 21.9 5 Este 16 Sudeste 0 -- -- 87
2019-10-14 09:00:00 21.1 6 Este 17 Este 0 -- -- 89
2019-10-14 08:00:00 20.9 7 Este 15 Nordeste 0 -- -- 87
2019-10-14 07:00:00 21 5 Este 13 Nordeste 0 -- -- 87
2019-10-14 06:00:00 21 6 Este 15 Nordeste 0 -- -- 87
2019-10-14 05:00:00 21.1 5 Este 16 Nordeste 0 -- -- 88
2019-10-14 04:00:00 21.3 5 Este 12 Sudeste 0 -- -- 90
2019-10-14 03:00:00 21.5 6 Este 13 Sudeste 0 -- -- 91
2019-10-14 02:00:00 21.6 6 Este 17 Nordeste 0 -- -- 91
2019-10-14 01:00:00 21.6 6 Este 15 Este 0 -- -- 91
2019-10-14 00:00:00 21.7 4 Este 18 Nordeste 0 -- -- 91
2019-10-13 23:00:00 21.8 5 Este 15 Nordeste 0 -- -- 90
2019-10-13 22:00:00 21.8 6 Este 17 Sudeste 0 -- -- 90
2019-10-13 21:00:00 21.8 6 Este 16 Este 0 -- -- 89
2019-10-13 20:00:00 22.2 5 Este 18 Este 0 -- -- 88
2019-10-13 19:00:00 22.8 6 Este 16 Sudeste 0 -- -- 85
2019-10-13 18:00:00 23.3 7 Este 14 Sudeste 0 -- -- 84
2019-10-13 17:00:00 24.4 6 Este 18 Este 0 -- -- 80
2019-10-13 16:00:00 24.7 7 Este 17 Sudeste 0 -- -- 79
2019-10-13 15:00:00 23.9 9 Este 21 Este 0 -- -- 83
2019-10-13 14:00:00 24.3 8 Este 21 Este 0 -- -- 80
2019-10-13 13:00:00 23.9 8 Este 21 Este 0 -- -- 81
2019-10-13 12:00:00 23.3 8 Este 24 Sur 0 -- -- 82
2019-10-13 11:00:00 23.2 6 Este 21 Este 0 -- -- 83
2019-10-13 10:00:00 22.3 7 Este 15 Nordeste 0 -- -- 86
2019-10-13 09:00:00 21.2 3 Este 10 Este 0 -- -- 87
2019-10-13 08:00:00 21 4 Este 8 Nordeste 0 -- -- 86
2019-10-13 07:00:00 21.3 5 Este 13 Nordeste 0 -- -- 86
2019-10-13 06:00:00 21.5 5 Este 16 Este 0 -- -- 89
2019-10-13 05:00:00 21.7 6 Este 13 Sudeste 0 -- -- 88
2019-10-13 04:00:00 21.8 3 Este 10 Este 0 -- -- 84
2019-10-13 03:00:00 21.8 4 Este 14 Este 0 -- -- 83
2019-10-13 02:00:00 21.9 5 Este 13 Este 0 -- -- 83
2019-10-13 01:00:00 21.8 3 Este 16 Nordeste 0 -- -- 84
2019-10-13 00:00:00 21.9 6 Este 15 Este 0 -- -- 85
2019-10-12 23:00:00 22 4 Este 16 Sudeste 0 -- -- 85
2019-10-12 22:00:00 21.9 6 Este 14 Sudeste 0 -- -- 85
2019-10-12 21:00:00 21.9 5 Este 10 Sudeste 0 -- -- 86
2019-10-12 20:00:00 22 4 Este 9 Sudeste 0 -- -- 85
2019-10-12 19:00:00 22.3 3 Este 13 Sudeste 0 -- -- 83
2019-10-12 18:00:00 23 3 Este 12 Sudeste 0 -- -- 80
2019-10-12 17:00:00 23.2 5 Este 15 Nordeste 0 -- -- 79
2019-10-12 16:00:00 24.2 5 Oeste 14 Sudoeste 0 -- -- 75
2019-10-12 15:00:00 24 6 Oeste 14 Oeste 0 -- -- 76
2019-10-12 14:00:00 23.6 6 Este 15 Oeste 0 -- -- 79
2019-10-12 13:00:00 23.5 6 Este 13 Sudeste 0 -- -- 80
2019-10-12 12:00:00 23.2 4 Este 9 Sudeste 0 -- -- 81
2019-10-12 11:00:00 22.2 3 Este 6 Sudeste 0 -- -- 86
2019-10-12 10:00:00 21.2 3 Este 6 Nordeste 0 -- -- 88
2019-10-12 09:00:00 20.3 3 Este 6 Nordeste 0 -- -- 90
2019-10-12 08:00:00 19.9 0 Calma 4 Este 0.2 -- -- 93
2019-10-12 07:00:00 20 0 Calma 4 Nordeste 0.4 -- -- 92
2019-10-12 06:00:00 20.1 2 Sudeste 3 Este 0 -- -- 93
2019-10-12 05:00:00 20.3 2 Oeste 4 Oeste 0 -- -- 93
2019-10-12 04:00:00 20.4 0 Calma 4 Noroeste 0 -- -- 93
2019-10-12 03:00:00 20.8 2 Oeste 4 Sudoeste 0 -- -- 91
2019-10-12 02:00:00 21.2 3 Oeste 8 Sudoeste 0 -- -- 90
2019-10-12 01:00:00 21.4 5 Oeste 8 Oeste 0 -- -- 90
2019-10-12 00:00:00 21.5 3 Sudoeste 6 Sudoeste 0 -- -- 89
2019-10-11 23:00:00 21.6 3 Oeste 6 Sudoeste 0 -- -- 88
2019-10-11 22:00:00 21.8 4 Oeste 9 Oeste 0 -- -- 87
2019-10-11 21:00:00 21.8 4 Sudoeste 9 Sudoeste 0 -- -- 86
2019-10-11 20:00:00 22.1 5 Sudoeste 15 Oeste 0 -- -- 83
2019-10-11 19:00:00 22.8 10 Oeste 21 Oeste 0 -- -- 79
2019-10-11 18:00:00 22.8 8 Oeste 25 Sudoeste 0 -- -- 80
2019-10-11 17:00:00 23.2 13 Oeste 28 Sudoeste 0 -- -- 76
2019-10-11 16:00:00 23.6 14 Oeste 25 Oeste 0 -- -- 73
2019-10-11 15:00:00 23 10 Oeste 19 Noroeste 0 -- -- 74
2019-10-11 14:00:00 23.4 9 Oeste 15 Oeste 0 -- -- 70
2019-10-11 13:00:00 22.9 4 Sudoeste 10 Oeste 0 -- -- 71
2019-10-11 12:00:00 22.1 3 Sudeste 9 Sudoeste 0 -- -- 75
2019-10-11 11:00:00 21.2 5 Oeste 7 Oeste 0 -- -- 75
2019-10-11 10:00:00 20.4 2 Este 9 Nordeste 0 -- -- 78
2019-10-11 09:00:00 19.8 4 Este 12 Nordeste 0 -- -- 79
2019-10-11 08:00:00 19 3 Este 5 Nordeste 0.2 -- -- 81
2019-10-11 07:00:00 19.4 3 Este 5 Nordeste 0.4 -- -- 84
2019-10-11 06:00:00 20 2 Nordeste 4 Este 0 -- -- 76
2019-10-11 05:00:00 20 2 Este 8 Nordeste 0 -- -- 76
2019-10-11 04:00:00 20 3 Este 6 Nordeste 0 -- -- 75
2019-10-11 03:00:00 19.9 3 Este 7 Nordeste 0 -- -- 75
2019-10-11 02:00:00 19.9 3 Este 6 Sudeste 0 -- -- 76
2019-10-11 01:00:00 19.9 0 Calma 4 Sudoeste 0 -- -- 75
2019-10-11 00:00:00 19.9 2 Sudoeste 5 Oeste 0 -- -- 75
2019-10-10 23:00:00 19.9 3 Oeste 9 Sudoeste 0 -- -- 74
2019-10-10 22:00:00 19.9 5 Oeste 10 Sudoeste 0 -- -- 73
2019-10-10 21:00:00 19.9 5 Sudoeste 13 Sudoeste 0 -- -- 73
2019-10-10 20:00:00 19.9 9 Oeste 20 Oeste 0 -- -- 73
2019-10-10 19:00:00 20.3 10 Oeste 20 Oeste 0 -- -- 71
2019-10-10 18:00:00 20.6 8 Oeste 18 Oeste 0 -- -- 71
2019-10-10 17:00:00 20.9 10 Oeste 18 Oeste 0 -- -- 67
2019-10-10 16:00:00 21.5 8 Oeste 15 Oeste 0 -- -- 63
2019-10-10 15:00:00 20.9 6 Oeste 17 Oeste 0 -- -- 66
2019-10-10 14:00:00 20.3 8 Oeste 16 Oeste 0 -- -- 67
2019-10-10 13:00:00 20.1 5 Oeste 12 Sur 0 -- -- 69
2019-10-10 12:00:00 19.7 3 Este 9 Sudeste 0 -- -- 76
2019-10-10 11:00:00 19.1 3 Este 9 Sudoeste 0 -- -- 78
2019-10-10 10:00:00 19.4 3 Oeste 8 Sudoeste 0 -- -- 79
2019-10-10 09:00:00 18.9 4 Este 8 Nordeste 0 -- -- 83
2019-10-10 08:00:00 18.8 4 Oeste 8 Oeste 0 -- -- 79
2019-10-10 07:00:00 19 5 Oeste 10 Oeste 0.4 -- -- 81
2019-10-10 06:00:00 19.4 5 Oeste 10 Oeste 0 -- -- 78
2019-10-10 05:00:00 19.5 5 Oeste 10 Oeste 0 -- -- 77
2019-10-10 04:00:00 19.3 4 Oeste 9 Sudoeste 0 -- -- 78
2019-10-10 03:00:00 19.2 3 Oeste 5 Oeste 0 -- -- 80
2019-10-10 02:00:00 19.1 0 Calma 5 Nordeste 0.2 -- -- 80
2019-10-10 01:00:00 19.4 0 Calma 9 Nordeste 0 -- -- 77
2019-10-10 00:00:00 19.3 3 Este 13 Sudeste 0 -- -- 77
2019-10-09 23:00:00 19.3 5 Este 16 Sudeste 0 -- -- 77
2019-10-09 22:00:00 19.3 5 Este 18 Este 0 -- -- 79
2019-10-09 21:00:00 19.1 7 Este 20 Sudeste 0 -- -- 83
2019-10-09 20:00:00 19.2 8 Este 35 Sudeste 0 -- -- 86
2019-10-09 19:00:00 19 11 Este 32 Sudeste 1.4 -- -- 88
2019-10-09 18:00:00 20.9 13 Este 31 Sudeste 0 -- -- 79
2019-10-09 17:00:00 22.7 6 Sudoeste 15 Sudoeste 0.4 -- -- 81
2019-10-09 16:00:00 22.3 9 Oeste 22 Oeste 0 -- -- 83
2019-10-09 15:00:00 23.1 10 Oeste 19 Oeste 0 -- -- 77
2019-10-09 14:00:00 23.6 10 Oeste 23 Oeste 0 -- -- 73
2019-10-09 13:00:00 24 10 Oeste 22 Sudoeste 0 -- -- 68
2019-10-09 12:00:00 23.4 10 Oeste 21 Oeste 0 -- -- 68
2019-10-09 11:00:00 23.3 11 Oeste 23 Oeste 0 -- -- 67
2019-10-09 10:00:00 22.2 9 Oeste 17 Sudoeste 0 -- -- 73
2019-10-09 09:00:00 21.1 4 Oeste 11 Sudoeste 0 -- -- 82
2019-10-09 08:00:00 20.4 3 Oeste 8 Sudoeste 0 -- -- 88
2019-10-09 07:00:00 19.8 3 Oeste 5 Sudoeste 0.4 -- -- 91
2019-10-09 06:00:00 19.8 0 Calma 2 Noroeste 0 -- -- 88
2019-10-09 05:00:00 19.9 0 Calma 3 Sudoeste 0 -- -- 86
2019-10-09 04:00:00 20.2 0 Calma 4 Oeste 0 -- -- 85
2019-10-09 03:00:00 20.5 2 Oeste 4 Oeste 0 -- -- 84
2019-10-09 02:00:00 20.6 2 Oeste 4 Oeste 0 -- -- 84
2019-10-09 01:00:00 20.8 2 Sudoeste 5 Sudoeste 0 -- -- 84
2019-10-09 00:00:00 21.3 3 Sudoeste 5 Sudoeste 0 -- -- 83
2019-10-08 23:00:00 21.7 3 Sudoeste 8 Sudoeste 0 -- -- 79
2019-10-08 22:00:00 22.2 4 Oeste 16 Oeste 0 -- -- 76
2019-10-08 21:00:00 22.5 8 Oeste 25 Oeste 0 -- -- 74
2019-10-08 20:00:00 22.8 13 Oeste 30 Oeste 0 -- -- 72
2019-10-08 19:00:00 23.6 15 Oeste 32 Oeste 0 -- -- 67
2019-10-08 18:00:00 24.3 16 Oeste 33 Oeste 0 -- -- 64
2019-10-08 17:00:00 24.9 13 Oeste 38 Oeste 0 -- -- 64
2019-10-08 16:00:00 24.7 17 Oeste 38 Oeste 0 -- -- 65
2019-10-08 15:00:00 24.6 18 Oeste 31 Oeste 0 -- -- 61
2019-10-08 14:00:00 24.2 19 Oeste 34 Oeste 0 -- -- 60
2019-10-08 13:00:00 23.9 16 Oeste 29 Oeste 0 -- -- 60
2019-10-08 12:00:00 23 14 Oeste 27 Noroeste 0 -- -- 62
2019-10-08 11:00:00 21.8 11 Oeste 18 Sudoeste 0 -- -- 67
2019-10-08 10:00:00 20.7 4 Sudoeste 12 Sudoeste 0 -- -- 73
2019-10-08 09:00:00 19.3 0 Calma 3 Nordeste 0 -- -- 80
2019-10-08 08:00:00 18.5 0 Calma 6 Nordeste 0.2 -- -- 77
2019-10-08 07:00:00 18.5 2 Nordeste 6 Nordeste 0.4 -- -- 83
2019-10-08 06:00:00 19.4 3 Nordeste 8 Nordeste 0 -- -- 73
2019-10-08 05:00:00 19.6 3 Nordeste 8 Nordeste 0 -- -- 73
2019-10-08 04:00:00 20.5 2 Oeste 13 Sudoeste 0 -- -- 76
2019-10-08 03:00:00 20.7 8 Sudoeste 18 Sur 0 -- -- 74
2019-10-08 02:00:00 20.8 5 Oeste 17 Sudoeste 0 -- -- 80
2019-10-08 01:00:00 21.1 7 Sudoeste 14 Sudoeste 0 -- -- 75
2019-10-08 00:00:00 21.1 4 Oeste 10 Sudoeste 0 -- -- 68
2019-10-07 23:00:00 20.9 4 Oeste 9 Sudoeste 0 -- -- 71
2019-10-07 22:00:00 21.1 0 Calma 8 Oeste 0 -- -- 63
2019-10-07 21:00:00 21.5 3 Oeste 6 Oeste 0 -- -- 59
2019-10-07 20:00:00 21.7 5 Oeste 13 Oeste 0 -- -- 58
2019-10-07 19:00:00 22.6 5 Oeste 13 Oeste 0 -- -- 55
2019-10-07 18:00:00 23.9 8 Oeste 19 Sudoeste 0 -- -- 48
2019-10-07 17:00:00 24.7 10 Sudoeste 24 Sudoeste 0 -- -- 46
2019-10-07 16:00:00 24.7 12 Sudoeste 24 Sur 0 -- -- 47
2019-10-07 15:00:00 24 11 Oeste 24 Oeste 0 -- -- 47
2019-10-07 14:00:00 22.9 13 Oeste 22 Sudoeste 0 -- -- 52
2019-10-07 13:00:00 22.2 11 Oeste 17 Oeste 0 -- -- 49
2019-10-07 12:00:00 20.9 3 Este 8 Nordeste 0 -- -- 48
2019-10-07 11:00:00 19.7 3 Sur 23 Oeste 0 -- -- 52
2019-10-07 10:00:00 18.9 7 Oeste 12 Oeste 0 -- -- 53
2019-10-07 09:00:00 17.8 6 Oeste 15 Oeste 0 -- -- 65
2019-10-07 08:00:00 18.2 5 Nordeste 19 Nordeste 0.2 -- -- 71
2019-10-07 07:00:00 18.5 3 Oeste 11 Oeste 0.4 -- -- 72
2019-10-07 06:00:00 19.6 5 Oeste 12 Noroeste 0 -- -- 69
2019-10-07 05:00:00 19.7 0 Calma 8 Nordeste 0 -- -- 80
2019-10-07 04:00:00 19.6 4 Nordeste 13 Este 0 -- -- 80
2019-10-07 03:00:00 20 4 Nordeste 16 Nordeste 0 -- -- 80
2019-10-07 02:00:00 20.4 6 Este 14 Nordeste 0 -- -- 79
2019-10-07 01:00:00 21.1 4 Este 11 Sudeste 0 -- -- 82
2019-10-07 00:00:00 20.8 3 Este 9 Sudeste 0 -- -- 82
2019-10-06 23:00:00 21 4 Este 12 Sur 0 -- -- 81
2019-10-06 22:00:00 21.1 5 Este 19 Sudeste 0 -- -- 80
2019-10-06 21:00:00 21.1 5 Este 19 Sudeste 0 -- -- 80
2019-10-06 20:00:00 21.1 5 Este 14 Sudeste 0 -- -- 79
2019-10-06 19:00:00 21.5 5 Este 15 Sudeste 0 -- -- 77
2019-10-06 18:00:00 22.1 4 Este 13 Oeste 0 -- -- 76
2019-10-06 17:00:00 22.1 4 Nordeste 14 Sudeste 0 -- -- 75
2019-10-06 16:00:00 22.5 5 Este 17 Sudoeste 0 -- -- 73
2019-10-06 15:00:00 22 4 Norte 15 Este 0 -- -- 73
2019-10-06 14:00:00 21.2 4 Este 10 Sudeste 0 -- -- 76
2019-10-06 13:00:00 20.6 3 Nordeste 13 Sudeste 0 -- -- 80
2019-10-06 12:00:00 20.5 5 Este 16 Este 0 -- -- 83
2019-10-06 11:00:00 20.7 6 Este 17 Este 0 -- -- 80
2019-10-06 10:00:00 20.1 5 Este 11 Nordeste 0 -- -- 80
2019-10-06 09:00:00 19.5 4 Este 10 Nordeste 0 -- -- 83
2019-10-06 08:00:00 19.3 4 Este 8 Nordeste 0.2 -- -- 84
2019-10-06 07:00:00 19.7 4 Este 8 Este 0.4 -- -- 85
2019-10-06 06:00:00 20.2 3 Este 5 Nordeste 0 -- -- 82
2019-10-06 05:00:00 20.1 0 Calma 5 Oeste 0 -- -- 82
2019-10-06 04:00:00 19.8 0 Calma 4 Sudeste 0 -- -- 83
2019-10-06 03:00:00 19.4 2 Este 5 Sudeste 0 -- -- 84
2019-10-06 02:00:00 19.7 0 Calma 5 Oeste 0 -- -- 83
2019-10-06 01:00:00 19.9 2 Sudoeste 5 Oeste 0 -- -- 82
2019-10-06 00:00:00 20.2 4 Oeste 6 Oeste 0 -- -- 80
2019-10-05 23:00:00 20.5 3 Oeste 6 Sudoeste 0 -- -- 79
2019-10-05 22:00:00 20.8 4 Sudoeste 6 Sudoeste 0 -- -- 77
2019-10-05 21:00:00 20.6 2 Oeste 11 Sudoeste 0 -- -- 78
2019-10-05 20:00:00 20.6 3 Nordeste 10 Sudeste 0 -- -- 77
2019-10-05 19:00:00 21 3 Noroeste 13 Oeste 0 -- -- 75
2019-10-05 18:00:00 21.4 5 Sudoeste 17 Sudoeste 0 -- -- 74
2019-10-05 17:00:00 21.7 6 Sudoeste 16 Oeste 0 -- -- 72
2019-10-05 16:00:00 22.8 4 Oeste 19 Sudoeste 0 -- -- 69
2019-10-05 15:00:00 21.6 8 Sudoeste 19 Sudoeste 0 -- -- 72
2019-10-05 14:00:00 22.4 6 Sudoeste 15 Sudoeste 0 -- -- 71
2019-10-05 13:00:00 22.1 4 Nordeste 13 Sudeste 0 -- -- 73
2019-10-05 12:00:00 20.9 4 Este 13 Sudeste 0 -- -- 77
2019-10-05 11:00:00 20.5 5 Sudeste 15 Este 0 -- -- 79
2019-10-05 10:00:00 20.5 8 Este 18 Sudeste 0 -- -- 80
2019-10-05 09:00:00 20.3 5 Este 19 Sudeste 0 -- -- 83
2019-10-05 08:00:00 19.4 3 Este 11 Nordeste 0.2 -- -- 82
2019-10-05 07:00:00 19.7 3 Nordeste 8 Norte 0.2 -- -- 82
2019-10-05 06:00:00 20.1 2 Nordeste 13 Norte 0 -- -- 77
2019-10-05 05:00:00 20.2 5 Nordeste 14 Nordeste 0 -- -- 75
2019-10-05 04:00:00 20.5 3 Nordeste 9 Nordeste 0 -- -- 73
2019-10-05 03:00:00 20.4 3 Este 13 Este 0 -- -- 72
2019-10-05 02:00:00 21 6 Este 18 Nordeste 0 -- -- 73
2019-10-05 01:00:00 20.9 4 Este 10 Nordeste 0 -- -- 68
2019-10-05 00:00:00 21.2 3 Este 7 Este 0 -- -- 68
2019-10-04 23:00:00 21.4 4 Oeste 7 Oeste 0 -- -- 69
2019-10-04 22:00:00 21.8 4 Oeste 8 Oeste 0 -- -- 68
2019-10-04 21:00:00 22.2 4 Oeste 15 Oeste 0 -- -- 68
2019-10-04 20:00:00 22.5 8 Oeste 24 Oeste 0 -- -- 66
2019-10-04 19:00:00 23.5 13 Oeste 24 Oeste 0 -- -- 60
2019-10-04 18:00:00 24.1 11 Oeste 23 Oeste 0 -- -- 60
2019-10-04 17:00:00 24.8 8 Sudoeste 14 Sudoeste 0 -- -- 59
2019-10-04 16:00:00 24.3 4 Nordeste 14 Sudeste 0 -- -- 55
2019-10-04 15:00:00 24.2 6 Sudeste 15 Este 0 -- -- 53
2019-10-04 14:00:00 23.5 6 Este 18 Este 0 -- -- 71
2019-10-04 13:00:00 22.7 7 Este 21 Este 0 -- -- 77
2019-10-04 12:00:00 22.3 8 Este 18 Sudeste 0 -- -- 77
2019-10-04 11:00:00 21.2 5 Este 14 Este 0 -- -- 76
2019-10-04 10:00:00 20.2 5 Este 14 Nordeste 0 -- -- 72
2019-10-04 09:00:00 18.9 6 Nordeste 13 Nordeste 0 -- -- 74
2019-10-04 08:00:00 18.2 3 Este 12 Norte 0.2 -- -- 77
2019-10-04 07:00:00 18.6 3 Este 12 Este 0.4 -- -- 79
2019-10-04 06:00:00 18.6 3 Este 8 Nordeste 0 -- -- 74
2019-10-04 05:00:00 18.9 0 Calma 8 Nordeste 0 -- -- 74
2019-10-04 04:00:00 19.3 4 Nordeste 9 Nordeste 0 -- -- 72
2019-10-04 03:00:00 19.6 2 Nordeste 8 Nordeste 0 -- -- 71
2019-10-04 02:00:00 19.7 4 Nordeste 8 Nordeste 0 -- -- 70
2019-10-04 01:00:00 20.1 2 Este 7 Oeste 0 -- -- 70
2019-10-04 00:00:00 20.7 4 Oeste 8 Oeste 0 -- -- 69
2019-10-03 23:00:00 21.4 4 Sudoeste 8 Oeste 0 -- -- 67
2019-10-03 22:00:00 21.5 3 Sudoeste 9 Sudoeste 0 -- -- 64
2019-10-03 21:00:00 21.6 5 Oeste 9 Oeste 0 -- -- 62
2019-10-03 20:00:00 22 4 Oeste 16 Oeste 0 -- -- 60
2019-10-03 19:00:00 23 9 Sudoeste 18 Sudoeste 0 -- -- 56
2019-10-03 18:00:00 24.1 8 Oeste 21 Sudoeste 0 -- -- 51
2019-10-03 17:00:00 24.2 8 Sudoeste 17 Sudoeste 0 -- -- 52
2019-10-03 16:00:00 24.1 7 Oeste 22 Sudoeste 0 -- -- 58
2019-10-03 15:00:00 23.4 9 Sudoeste 24 Sudoeste 0 -- -- 59
2019-10-03 14:00:00 22.7 14 Sudoeste 25 Sur 0 -- -- 57
2019-10-03 13:00:00 23.3 8 Sudoeste 16 Sudoeste 0 -- -- 46
2019-10-03 12:00:00 21.8 4 Este 16 Nordeste 0 -- -- 49
2019-10-03 11:00:00 19.4 8 Nordeste 22 Oeste 0 -- -- 58
2019-10-03 10:00:00 18.3 11 Oeste 18 Oeste 0 -- -- 59
2019-10-03 09:00:00 17.7 4 Oeste 21 Oeste 0 -- -- 62
2019-10-03 08:00:00 17.8 8 Oeste 18 Noroeste 0 -- -- 61
2019-10-03 07:00:00 18.4 9 Oeste 15 Oeste 0 -- -- 61
2019-10-03 06:00:00 19.4 8 Oeste 16 Noroeste 0 -- -- 57
2019-10-03 05:00:00 19.9 8 Oeste 15 Oeste 0 -- -- 57
2019-10-03 04:00:00 20.6 6 Oeste 12 Oeste 0 -- -- 60
2019-10-03 03:00:00 21.1 4 Nordeste 8 Nordeste 0 -- -- 73
2019-10-03 02:00:00 21.1 2 Oeste 8 Sudoeste 0 -- -- 79
2019-10-03 01:00:00 21.2 4 Oeste 8 Oeste 0 -- -- 78
2019-10-03 00:00:00 21.4 4 Oeste 10 Sudoeste 0 -- -- 77
2019-10-02 23:00:00 21.6 3 Noroeste 12 Este 0 -- -- 74
2019-10-02 22:00:00 21.8 4 Este 14 Sudeste 0 -- -- 69
2019-10-02 21:00:00 21.9 5 Este 13 Sudeste 0 -- -- 66
2019-10-02 20:00:00 22.2 4 Este 11 Sudeste 0 -- -- 65
2019-10-02 19:00:00 23.3 5 Sudeste 12 Este 0 -- -- 57
2019-10-02 18:00:00 24.2 7 Sudoeste 17 Sudoeste 0 -- -- 53
2019-10-02 17:00:00 24.6 9 Sudoeste 19 Sudoeste 0 -- -- 51
2019-10-02 16:00:00 25.1 5 Oeste 19 Sudoeste 0 -- -- 57
2019-10-02 15:00:00 24.9 5 Este 16 Este 0 -- -- 62
2019-10-02 14:00:00 24 8 Este 17 Sur 0 -- -- 69
2019-10-02 13:00:00 23.1 5 Sur 14 Sudeste 0 -- -- 69
2019-10-02 12:00:00 23 4 Oeste 14 Oeste 0 -- -- 65
2019-10-02 11:00:00 21.7 5 Sudoeste 18 Sudoeste 0 -- -- 62
2019-10-02 10:00:00 21.3 7 Oeste 13 Oeste 0 -- -- 74
2019-10-02 09:00:00 20.7 6 Oeste 11 Oeste 0 -- -- 75
2019-10-02 08:00:00 20.2 6 Oeste 12 Oeste 0 -- -- 78
2019-10-02 07:00:00 20 7 Oeste 14 Oeste 0 -- -- 77
2019-10-02 06:00:00 20.6 4 Sudoeste 10 Sudeste 0 -- -- 72
2019-10-02 05:00:00 20.9 4 Oeste 11 Sudoeste 0 -- -- 73
2019-10-02 04:00:00 21.2 6 Este 22 Sudeste 0 -- -- 71
2019-10-02 03:00:00 21.5 6 Este 22 Sudeste 0 -- -- 71
2019-10-02 02:00:00 22 7 Este 22 Sudeste 0 -- -- 73
2019-10-02 01:00:00 22.7 10 Este 29 Sudeste 0 -- -- 79
2019-10-02 00:00:00 23.5 6 Este 19 Nordeste 0 -- -- 87
2019-10-01 23:00:00 23.5 5 Este 15 Este 0 -- -- 85
2019-10-01 22:00:00 23.5 5 Nordeste 11 Nordeste 0 -- -- 84
2019-10-01 21:00:00 23.6 3 Sudeste 16 Oeste 0 -- -- 82
2019-10-01 20:00:00 24 9 Oeste 19 Oeste 0 -- -- 81
2019-10-01 19:00:00 24.3 5 Sudoeste 25 Oeste 0 -- -- 79
2019-10-01 18:00:00 25.4 13 Oeste 30 Oeste 0 -- -- 74
2019-10-01 17:00:00 26 14 Oeste 28 Oeste 0 -- -- 72
2019-10-01 16:00:00 26.5 11 Oeste 24 Oeste 0 -- -- 70
2019-10-01 15:00:00 26 13 Oeste 26 Oeste 0 -- -- 69
2019-10-01 14:00:00 26.1 11 Oeste 22 Oeste 0 -- -- 68
2019-10-01 13:00:00 25.3 10 Oeste 18 Noroeste 0 -- -- 71
2019-10-01 12:00:00 24.1 8 Oeste 16 Oeste 0 -- -- 75
2019-10-01 11:00:00 23.3 5 Sudoeste 13 Oeste 0 -- -- 78
2019-10-01 10:00:00 22.1 3 Sudoeste 8 Oeste 0 -- -- 81
2019-10-01 09:00:00 20 2 Sudoeste 4 Sudeste 0 -- -- 88
2019-10-01 08:00:00 19.6 0 Calma 5 Oeste 0.4 -- -- 90
2019-10-01 07:00:00 19.8 2 Sudoeste 5 Sudoeste 0.2 -- -- 88
2019-10-01 06:00:00 20.3 2 Sudoeste 6 Oeste 0 -- -- 84
2019-10-01 05:00:00 20.4 2 Sudoeste 8 Sudoeste 0 -- -- 84
2019-10-01 04:00:00 20.6 3 Sudoeste 7 Oeste 0 -- -- 83
2019-10-01 03:00:00 20.9 4 Oeste 7 Oeste 0 -- -- 82
2019-10-01 02:00:00 21.8 4 Oeste 10 Oeste 0 -- -- 79
2019-10-01 01:00:00 22.3 4 Oeste 7 Oeste 0 -- -- 78
2019-10-01 00:00:00 22.5 5 Oeste 8 Sudoeste 0 -- -- 79
2019-09-30 23:00:00 22.3 3 Oeste 6 Oeste 0 -- -- 81
2019-09-30 22:00:00 22.4 4 Oeste 9 Oeste 0 -- -- 80
2019-09-30 21:00:00 22.5 5 Oeste 11 Oeste 0 -- -- 77
2019-09-30 20:00:00 22.9 5 Oeste 15 Sudoeste 0 -- -- 73
2019-09-30 19:00:00 23.9 8 Oeste 19 Oeste 0 -- -- 69
2019-09-30 18:00:00 24.8 10 Sudoeste 26 Sudoeste 0 -- -- 65
2019-09-30 17:00:00 24.7 13 Sudoeste 28 Sudoeste 0 -- -- 67
2019-09-30 16:00:00 25 13 Sudoeste 26 Sudoeste 0 -- -- 66
2019-09-30 15:00:00 25.3 12 Sudoeste 27 Sudoeste 0 -- -- 64
2019-09-30 14:00:00 25.6 12 Sudoeste 19 Sudoeste 0 -- -- 62
2019-09-30 13:00:00 24.9 6 Oeste 15 Sudoeste 0.2 -- -- 66
2019-09-30 12:00:00 24.5 7 Oeste 15 Sudoeste 0 -- -- 64
2019-09-30 11:00:00 23.9 5 Sudoeste 12 Sudoeste 0 -- -- 73
2019-09-30 10:00:00 22.8 3 Este 9 Sudeste 0 -- -- 80
2019-09-30 09:00:00 22.2 3 Este 6 Nordeste 0 -- -- 87
2019-09-30 08:00:00 21 3 Este 8 Nordeste 0.2 -- -- 87
2019-09-30 07:00:00 21.1 3 Este 10 Nordeste 0.4 -- -- 88
2019-09-30 06:00:00 21.1 2 Este 8 Este 0 -- -- 87
2019-09-30 05:00:00 21.3 4 Este 11 Nordeste 0 -- -- 85
2019-09-30 04:00:00 21.1 2 Este 6 Este 0 -- -- 89
2019-09-30 03:00:00 21.5 0 Calma 4 Oeste 0 -- -- 87
2019-09-30 02:00:00 21.5 0 Calma 3 Oeste 0 -- -- 88
2019-09-30 01:00:00 22.1 2 Oeste 7 Noroeste 0 -- -- 85
2019-09-30 00:00:00 22.2 0 Calma 7 Oeste 0 -- -- 85
2019-09-29 23:00:00 22.7 0 Calma 15 Oeste 0 -- -- 84
2019-09-29 22:00:00 23.4 8 Oeste 21 Sudoeste 0 -- -- 82
2019-09-29 21:00:00 23.6 13 Oeste 31 Oeste 0 -- -- 81
2019-09-29 20:00:00 23.9 19 Oeste 38 Oeste 0 -- -- 83
2019-09-29 19:00:00 24.8 18 Oeste 34 Oeste 0 -- -- 78
2019-09-29 18:00:00 25.7 20 Oeste 40 Oeste 0 -- -- 74
2019-09-29 17:00:00 25.9 21 Oeste 41 Oeste 0 -- -- 74
2019-09-29 16:00:00 26.3 20 Oeste 42 Oeste 0 -- -- 71
2019-09-29 15:00:00 26.7 17 Oeste 35 Oeste 0 -- -- 67
2019-09-29 14:00:00 26.4 18 Oeste 30 Sudoeste 0 -- -- 69
2019-09-29 13:00:00 26.1 19 Oeste 31 Noroeste 0 -- -- 69
2019-09-29 12:00:00 25.7 9 Oeste 19 Oeste 0 -- -- 70
2019-09-29 11:00:00 23.9 9 Oeste 16 Noroeste 0 -- -- 73
2019-09-29 10:00:00 22.6 7 Oeste 14 Sudoeste 0 -- -- 78
2019-09-29 09:00:00 21.2 4 Oeste 6 Sudoeste 0 -- -- 86
2019-09-29 08:00:00 20 2 Sudoeste 5 Oeste 0 -- -- 90
2019-09-29 07:00:00 20.5 3 Oeste 6 Sudoeste 0.4 -- -- 89
2019-09-29 06:00:00 20.9 3 Sudoeste 5 Oeste 0 -- -- 86
2019-09-29 05:00:00 21.4 3 Sudoeste 5 Oeste 0 -- -- 85
2019-09-29 04:00:00 21.4 3 Oeste 6 Oeste 0 -- -- 85
2019-09-29 03:00:00 21.7 3 Oeste 5 Oeste 0 -- -- 82
2019-09-29 02:00:00 22.1 3 Oeste 6 Oeste 0 -- -- 80
2019-09-29 01:00:00 22.5 4 Oeste 7 Sudoeste 0 -- -- 79
2019-09-29 00:00:00 22.3 3 Sudoeste 5 Sudoeste 0 -- -- 81
2019-09-28 23:00:00 22.1 3 Sudoeste 7 Oeste 0 -- -- 80
2019-09-28 22:00:00 22.3 4 Sudoeste 10 Oeste 0 -- -- 78
2019-09-28 21:00:00 22.2 4 Oeste 12 Oeste 0 -- -- 77
2019-09-28 20:00:00 22.6 6 Oeste 13 Oeste 0 -- -- 73
2019-09-28 19:00:00 23.6 3 Sudoeste 12 Sudoeste 0 -- -- 68
2019-09-28 18:00:00 24 5 Oeste 15 Este 0 -- -- 63
2019-09-28 17:00:00 24.5 6 Este 14 Este 0 -- -- 62
2019-09-28 16:00:00 24.8 6 Este 15 Sudeste 0 -- -- 64
2019-09-28 15:00:00 24.2 4 Este 14 Sudeste 0 -- -- 62
2019-09-28 14:00:00 24.1 5 Sudeste 14 Este 0 -- -- 62
2019-09-28 13:00:00 24.1 8 Este 17 Sudeste 0 -- -- 62
2019-09-28 12:00:00 24.5 6 Este 15 Sudeste 0 -- -- 68
2019-09-28 11:00:00 23.6 5 Este 16 Sudeste 0 -- -- 70
2019-09-28 10:00:00 23 5 Este 11 Sudeste 0 -- -- 79
2019-09-28 09:00:00 21.9 5 Este 13 Sudeste 0 -- -- 79
2019-09-28 08:00:00 21.7 5 Este 15 Sudeste 0.2 -- -- 80
2019-09-28 07:00:00 22 6 Este 13 Este 0.2 -- -- 86
2019-09-28 06:00:00 22.7 4 Este 11 Sudeste 0 -- -- 82
2019-09-28 05:00:00 22.5 3 Este 9 Nordeste 0 -- -- 82
2019-09-28 04:00:00 22.5 3 Este 8 Sudeste 0 -- -- 85
2019-09-28 03:00:00 22.8 3 Este 6 Este 0 -- -- 88
2019-09-28 02:00:00 22.8 3 Este 5 Oeste 0 -- -- 91
2019-09-28 01:00:00 22.8 3 Oeste 4 Oeste 0 -- -- 90
2019-09-28 00:00:00 23.2 2 Sudoeste 5 Sudoeste 0 -- -- 88
2019-09-27 23:00:00 23.2 2 Sudoeste 9 Oeste 0 -- -- 87
2019-09-27 22:00:00 23.4 5 Oeste 9 Oeste 0 -- -- 86
2019-09-27 21:00:00 23.7 5 Sudoeste 19 Oeste 0 -- -- 85
2019-09-27 20:00:00 24.2 10 Oeste 21 Oeste 0 -- -- 82
2019-09-27 19:00:00 24.4 10 Oeste 22 Oeste 0 -- -- 81
2019-09-27 18:00:00 24.9 12 Oeste 21 Sudoeste 0 -- -- 79
2019-09-27 17:00:00 25.2 12 Oeste 24 Sudoeste 0 -- -- 78
2019-09-27 16:00:00 25.7 12 Sudoeste 23 Oeste 0 -- -- 75
2019-09-27 15:00:00 24.9 10 Oeste 18 Oeste 0 -- -- 76
2019-09-27 14:00:00 24.5 4 Oeste 10 Sudoeste 0 -- -- 81
2019-09-27 13:00:00 24 4 Sudoeste 12 Sudoeste 0 -- -- 81
2019-09-27 12:00:00 23.5 4 Oeste 9 Sudoeste 0 -- -- 79
2019-09-27 11:00:00 23.1 4 Este 9 Sudeste 0 -- -- 78
2019-09-27 10:00:00 23.2 3 Este 8 Sudeste 0 -- -- 76
2019-09-27 09:00:00 21.6 0 Calma 4 Sudeste 0 -- -- 83
2019-09-27 08:00:00 20.3 0 Calma 4 Este 0.4 -- -- 87
2019-09-27 07:00:00 20.8 2 Este 4 Este 0.2 -- -- 86
2019-09-27 06:00:00 21 0 Calma 5 Este 0 -- -- 81
2019-09-27 05:00:00 20.7 2 Este 4 Este 0 -- -- 82
2019-09-27 04:00:00 21 0 Calma 3 Sudeste 0 -- -- 84
2019-09-27 03:00:00 21.3 2 Sudoeste 4 Sudoeste 0 -- -- 82
2019-09-27 02:00:00 21.8 3 Oeste 6 Oeste 0 -- -- 78
2019-09-27 01:00:00 22.1 3 Oeste 6 Oeste 0 -- -- 78
2019-09-27 00:00:00 22.5 3 Sudoeste 8 Oeste 0 -- -- 82
2019-09-26 23:00:00 22.9 3 Sudoeste 16 Oeste 0 -- -- 80
2019-09-26 22:00:00 23.2 9 Oeste 20 Oeste 0 -- -- 77
2019-09-26 21:00:00 23.4 6 Sudoeste 21 Oeste 0 -- -- 73
2019-09-26 20:00:00 23.8 14 Oeste 30 Oeste 0 -- -- 73
2019-09-26 19:00:00 24.6 17 Oeste 34 Oeste 0 -- -- 65
2019-09-26 18:00:00 25.5 14 Oeste 29 Oeste 0 -- -- 61
2019-09-26 17:00:00 26.1 16 Oeste 30 Oeste 0 -- -- 55
2019-09-26 16:00:00 26 9 Sudoeste 18 Oeste 0 -- -- 53
2019-09-26 15:00:00 25.1 6 Oeste 17 Sudoeste 0 -- -- 69
2019-09-26 14:00:00 24.7 5 Este 17 Sudeste 0 -- -- 72
2019-09-26 13:00:00 23.6 7 Sudeste 17 Sudeste 0 -- -- 78
2019-09-26 12:00:00 23.8 6 Este 15 Sudeste 0 -- -- 75
2019-09-26 11:00:00 23 6 Sudeste 14 Sudeste 0 -- -- 76
2019-09-26 10:00:00 22.2 5 Este 11 Sudeste 0 -- -- 77
2019-09-26 09:00:00 20.7 4 Este 12 Nordeste 0 -- -- 80
2019-09-26 08:00:00 19.7 3 Este 5 Sudeste 0.4 -- -- 85
2019-09-26 07:00:00 20.1 0 Calma 11 Nordeste 0.2 -- -- 85
2019-09-26 06:00:00 20.5 3 Este 6 Sudeste 0 -- -- 80
2019-09-26 05:00:00 20.7 2 Nordeste 5 Nordeste 0 -- -- 79
2019-09-26 04:00:00 21 3 Oeste 4 Oeste 0 -- -- 79
2019-09-26 03:00:00 21.7 5 Oeste 9 Oeste 0 -- -- 76
2019-09-26 02:00:00 21.7 4 Oeste 9 Oeste 0 -- -- 76
2019-09-26 01:00:00 21.6 4 Oeste 8 Oeste 0 -- -- 74
2019-09-26 00:00:00 21.6 4 Sudoeste 11 Sudoeste 0 -- -- 73
2019-09-25 23:00:00 21.6 4 Sudoeste 11 Sudoeste 0 -- -- 72
2019-09-25 22:00:00 21.5 4 Oeste 10 Sudoeste 0 -- -- 72
2019-09-25 21:00:00 21.5 4 Sudoeste 13 Sudoeste 0 -- -- 71
2019-09-25 20:00:00 21.6 3 Oeste 12 Sudoeste 0 -- -- 71
2019-09-25 19:00:00 22.1 3 Este 12 Este 0 -- -- 70
2019-09-25 18:00:00 23.5 4 Este 15 Sudeste 0 -- -- 65
2019-09-25 17:00:00 23.7 5 Este 16 Sudeste 0 -- -- 65
2019-09-25 16:00:00 24.1 5 Este 13 Este 0 -- -- 64
2019-09-25 15:00:00 23.9 5 Nordeste 15 Este 0 -- -- 64
2019-09-25 14:00:00 24.4 5 Noroeste 15 Sudeste 0 -- -- 63
2019-09-25 13:00:00 23.4 5 Sudeste 15 Sudeste 0 -- -- 66
2019-09-25 12:00:00 23.3 5 Este 13 Sudeste 0 -- -- 63
2019-09-25 11:00:00 22.9 5 Este 14 Sudeste 0 -- -- 67
2019-09-25 10:00:00 21.9 4 Sudeste 11 Sudeste 0 -- -- 72
2019-09-25 09:00:00 21.2 4 Este 8 Sudeste 0 -- -- 83
2019-09-25 08:00:00 20.6 3 Este 9 Este 0.2 -- -- 85
2019-09-25 07:00:00 21 3 Este 16 Sudeste 0.2 -- -- 85
2019-09-25 06:00:00 21.5 6 Este 15 Nordeste 0 -- -- 80
2019-09-25 05:00:00 -- 5 Este 12 Este 0 -- -- --
2019-09-25 04:00:00 21.9 5 Nordeste 12 Nordeste 0 -- -- 82
2019-09-25 03:00:00 21.8 5 Este 13 Nordeste 0 -- -- 82
2019-09-25 02:00:00 21.8 6 Este 14 Nordeste 0 -- -- 82
2019-09-25 01:00:00 21.8 6 Este 17 Nordeste 0 -- -- 83
2019-09-25 00:00:00 21.9 8 Este 19 Nordeste 0 -- -- 87
2019-09-24 23:00:00 22.6 8 Este 21 Nordeste 0 -- -- 85
2019-09-24 22:00:00 23.7 6 Este 19 Nordeste 0 -- -- 82
2019-09-24 21:00:00 24.3 8 Oeste 26 Oeste 0 -- -- 74
2019-09-24 20:00:00 24.3 15 Oeste 36 Oeste 0 -- -- 78
2019-09-24 19:00:00 25.7 24 Oeste 40 Oeste 0 -- -- 66
2019-09-24 18:00:00 26.6 21 Oeste 38 Oeste 0 -- -- 61
2019-09-24 17:00:00 27.6 18 Oeste 36 Oeste 0 -- -- 57
2019-09-24 16:00:00 28.1 18 Oeste 35 Oeste 0 -- -- 55
2019-09-24 15:00:00 27.9 16 Oeste 36 Oeste 0 -- -- 56
2019-09-24 14:00:00 27.2 21 Oeste 36 Sudoeste 0 -- -- 56
2019-09-24 13:00:00 26.5 17 Oeste 32 Oeste 0 -- -- 58
2019-09-24 12:00:00 25.7 12 Oeste 27 Oeste 0 -- -- 56
2019-09-24 11:00:00 23.9 11 Oeste 21 Sudoeste 0 -- -- 62
2019-09-24 10:00:00 22.6 9 Oeste 15 Sudoeste 0 -- -- 59
2019-09-24 09:00:00 20.5 5 Oeste 9 Oeste 0 -- -- 65
2019-09-24 08:00:00 18.8 4 Oeste 8 Oeste 0.2 -- -- 76
2019-09-24 07:00:00 19.5 0 Calma 7 Oeste 0.4 -- -- 80
2019-09-24 06:00:00 20.4 4 Oeste 10 Oeste 0 -- -- 80
2019-09-24 05:00:00 20.8 5 Oeste 12 Oeste 0 -- -- 80
2019-09-24 04:00:00 20.6 4 Oeste 8 Oeste 0 -- -- 81
2019-09-24 03:00:00 20.5 0 Calma 6 Oeste 0 -- -- 81
2019-09-24 02:00:00 21.1 2 Oeste 9 Oeste 0 -- -- 78
2019-09-24 01:00:00 21.6 5 Oeste 10 Oeste 0 -- -- 76
2019-09-24 00:00:00 22.1 6 Oeste 12 Oeste 0 -- -- 73
2019-09-23 23:00:00 22.2 6 Oeste 12 Oeste 0 -- -- 72
2019-09-23 22:00:00 22.1 5 Oeste 13 Oeste 0 -- -- 71
2019-09-23 21:00:00 22.3 5 Oeste 17 Oeste 0 -- -- 67
2019-09-23 20:00:00 22.4 9 Oeste 23 Oeste 0 -- -- 65
2019-09-23 19:00:00 22.7 9 Oeste 23 Oeste 0 -- -- 64
2019-09-23 18:00:00 23 10 Oeste 28 Oeste 0 -- -- 64
2019-09-23 17:00:00 23.5 15 Oeste 31 Oeste 0 -- -- 63
2019-09-23 16:00:00 24.2 14 Oeste 29 Oeste 0 -- -- 60
2019-09-23 15:00:00 22.8 11 Oeste 27 Sudoeste 0 -- -- 63
2019-09-23 14:00:00 23 10 Oeste 27 Sudoeste 0 -- -- 64
2019-09-23 13:00:00 23.8 8 Oeste 18 Sudoeste 0 -- -- 61
2019-09-23 12:00:00 22.9 6 Oeste 17 Sudoeste 0 -- -- 65
2019-09-23 11:00:00 21.9 5 Sudoeste 10 Sudoeste 0 -- -- 66
2019-09-23 10:00:00 21 7 Oeste 10 Oeste 0 -- -- 70
2019-09-23 09:00:00 19.7 2 Nordeste 7 Oeste 0 -- -- 75
2019-09-23 08:00:00 18.4 0 Calma 5 Nordeste 0.2 -- -- 81
2019-09-23 07:00:00 19.1 2 Este 6 Nordeste 0.4 -- -- 79
2019-09-23 06:00:00 19.6 2 Nordeste 8 Nordeste 0 -- -- 74
2019-09-23 05:00:00 19.9 3 Este 10 Sudeste 0 -- -- 75
2019-09-23 04:00:00 20.3 5 Este 15 Sudeste 0 -- -- 75
2019-09-23 03:00:00 20.5 6 Este 14 Sudeste 0 -- -- 74
2019-09-23 02:00:00 20.7 5 Este 21 Sudeste 0 -- -- 86
2019-09-23 01:00:00 21 8 Este 18 Este 0 -- -- 88
2019-09-23 00:00:00 21.3 6 Este 22 Este 0 -- -- 88
2019-09-22 23:00:00 22.1 11 Este 24 Sudeste 0 -- -- 86
2019-09-22 22:00:00 22.9 4 Oeste 16 Oeste 0.6 -- -- 86
2019-09-22 21:00:00 23.1 11 Oeste 35 Oeste 6.2 -- -- 83
2019-09-22 20:00:00 24.3 16 Oeste 33 Oeste 0 -- -- 80
2019-09-22 19:00:00 24.9 14 Oeste 28 Oeste 0 -- -- 77
2019-09-22 18:00:00 26.2 13 Oeste 29 Oeste 0 -- -- 71
2019-09-22 17:00:00 26.6 13 Oeste 27 Oeste 0 -- -- 70
2019-09-22 16:00:00 26.6 13 Oeste 31 Oeste 0 -- -- 70
2019-09-22 15:00:00 26.2 15 Oeste 30 Oeste 0 -- -- 71
2019-09-22 14:00:00 26.2 10 Oeste 24 Sudoeste 0 -- -- 71
2019-09-22 13:00:00 25.5 13 Oeste 26 Oeste 0 -- -- 72
2019-09-22 12:00:00 24.8 9 Oeste 22 Oeste 0 -- -- 74
2019-09-22 11:00:00 23.3 8 Oeste 18 Sudoeste 0 -- -- 77
2019-09-22 10:00:00 22.3 6 Oeste 15 Oeste 0 -- -- 78
2019-09-22 09:00:00 20.7 5 Oeste 11 Oeste 0 -- -- 81
2019-09-22 08:00:00 19.4 3 Oeste 6 Oeste 0.2 -- -- 88
2019-09-22 07:00:00 19.9 2 Oeste 6 Noroeste 0.2 -- -- 87
2019-09-22 06:00:00 19.9 2 Oeste 6 Oeste 0 -- -- 85
2019-09-22 05:00:00 20.3 0 Calma 5 Nordeste 0 -- -- 83
2019-09-22 04:00:00 20.9 0 Calma 9 Nordeste 0 -- -- 79
2019-09-22 03:00:00 21.1 0 Calma 9 Norte 0 -- -- 78
2019-09-22 02:00:00 20.7 4 Nordeste 8 Nordeste 0 -- -- 79
2019-09-22 01:00:00 20.7 3 Este 8 Este 0 -- -- 81
2019-09-22 00:00:00 20.5 3 Este 10 Nordeste 0 -- -- 82
2019-09-21 23:00:00 21 5 Este 14 Este 0 -- -- 81
2019-09-21 22:00:00 21.1 6 Este 21 Sudeste 0 -- -- 83
2019-09-21 21:00:00 20.9 7 Este 28 Sudeste 0 -- -- 82
2019-09-21 20:00:00 21.1 12 Este 25 Este 0 -- -- 84
2019-09-21 19:00:00 21.6 6 Este 19 Sudeste 0 -- -- 87
2019-09-21 18:00:00 21.7 8 Este 23 Este 0 -- -- 88
2019-09-21 17:00:00 21.7 8 Este 21 Sudeste 0 -- -- 90
2019-09-21 16:00:00 20.9 6 Este 18 Este 0 -- -- 92
2019-09-21 15:00:00 20.6 5 Este 22 Sudeste 7.4 -- -- 93
2019-09-21 14:00:00 21.3 4 Este 18 Sudeste 2.8 -- -- 89
2019-09-21 13:00:00 21.6 9 Este 30 Sudeste 0.2 -- -- 87
2019-09-21 12:00:00 21.6 8 Este 23 Sudeste 0.2 -- -- 91
2019-09-21 11:00:00 21.9 4 Este 12 Este 0 -- -- 89
2019-09-21 10:00:00 21.9 4 Este 8 Este 0.8 -- -- 90
2019-09-21 09:00:00 21.9 4 Este 10 Nordeste 1.6 -- -- 88
2019-09-21 08:00:00 21.6 3 Este 6 Este 0.2 -- -- 81
2019-09-21 07:00:00 21.9 2 Este 11 Nordeste 0.2 -- -- 81
2019-09-21 06:00:00 22.5 4 Nordeste 10 Nordeste 0 -- -- 75
2019-09-21 05:00:00 22.4 5 Este 18 Nordeste 0 -- -- 76
2019-09-21 04:00:00 22.3 8 Nordeste 21 Sudeste 0 -- -- 80
2019-09-21 03:00:00 22.2 6 Este 19 Este 0 -- -- 77
2019-09-21 02:00:00 22.2 7 Este 18 Nordeste 0 -- -- 80
2019-09-21 01:00:00 22.2 6 Este 17 Este 0 -- -- 82
2019-09-21 00:00:00 22.3 6 Este 18 Este 0 -- -- 82
2019-09-20 23:00:00 22.5 7 Este 18 Este 0 -- -- 84
2019-09-20 22:00:00 22.9 8 Este 21 Sudeste 0 -- -- 83
2019-09-20 21:00:00 22.8 9 Este 23 Sudeste 0 -- -- 83
2019-09-20 20:00:00 22.9 10 Este 26 Sudeste 0 -- -- 82
2019-09-20 19:00:00 23.3 9 Este 21 Este 0 -- -- 82
2019-09-20 18:00:00 23.6 8 Este 23 Sudeste 0 -- -- 79
2019-09-20 17:00:00 24.3 7 Este 23 Sudeste 0 -- -- 75
2019-09-20 16:00:00 24.8 9 Este 22 Sudeste 0 -- -- 72
2019-09-20 15:00:00 24.8 9 Este 20 Este 0 -- -- 71
2019-09-20 14:00:00 24.6 8 Este 17 Sudeste 0 -- -- 69
2019-09-20 13:00:00 24.3 8 Sudeste 19 Sudeste 0 -- -- 67
2019-09-20 12:00:00 24.3 7 Este 17 Sudeste 0 -- -- 65
2019-09-20 11:00:00 23.6 8 Este 17 Este 0 -- -- 63
2019-09-20 10:00:00 22.9 5 Este 13 Este 0 -- -- 68
2019-09-20 09:00:00 21.6 4 Este 9 Nordeste 0 -- -- 72
2019-09-20 08:00:00 20.2 6 Nordeste 11 Nordeste 0.4 -- -- 74
2019-09-20 07:00:00 20.3 4 Este 9 Nordeste 0.2 -- -- 78
2019-09-20 06:00:00 20.8 0 Calma 5 Nordeste 0 -- -- 78
2019-09-20 05:00:00 21.1 3 Nordeste 8 Nordeste 0 -- -- 76
2019-09-20 04:00:00 21.1 3 Este 8 Este 0 -- -- 78
2019-09-20 03:00:00 21.4 2 Este 11 Nordeste 0 -- -- 78
2019-09-20 02:00:00 21.3 3 Este 6 Sudeste 0 -- -- 82
2019-09-20 01:00:00 21.5 3 Sudeste 6 Sudeste 0 -- -- 83
2019-09-20 00:00:00 21.7 2 Sudeste 6 Nordeste 0 -- -- 83